Data for 12/23/2016

Time Sea-Level Adjusted Pressure Absolute Pressure Temperature Relative Humidity Dew Point   
(mb) (inHg) (mb) (inHg) (C) (F) (%) (C) (F)
00:05 1011 29.85 841 24.83 -8.1 17.5 44 -18.2 -0.8
00:10 1011 29.85 841 24.83 -8.9 16 45 -18.7 -1.7
00:15 1012 29.88 841 24.83 -8.8 16.1 43 -19.2 -2.5
00:20 1012 29.88 841 24.83 -8 17.5 41 -19 -2.2
00:25 1012 29.88 841 24.83 -8.1 17.4 46 -17.8 0
00:30 1012 29.88 841 24.83 -8.3 17.1 44 -18.6 -1.5
00:35 1012 29.88 841 24.83 -8 17.7 42 -18.8 -1.9
00:40 1012 29.88 841 24.83 -7.7 18.1 39 -19.5 -3.1
00:45 1012 29.88 841 24.83 -7.3 18.9 39 -19.1 -2.3
00:50 1012 29.88 841 24.83 -7.5 18.6 40 -18.9 -2
00:55 1012 29.88 841 24.83 -7.4 18.6 42 -18.3 -0.9
01:00 1012 29.88 841 24.83 -7.5 18.5 43 -18.2 -0.7
01:05 1012 29.88 841 24.83 -7.6 18.3 51 -16.2 2.9
01:10 1012 29.88 841 24.83 -7.3 18.8 50 -16.1 2.9
01:15 1012 29.88 841 24.83 -7.7 18.1 46 -17.6 0.4
01:20 1012 29.88 841 24.83 -8.9 15.9 47 -18.2 -0.8
01:25 1012 29.88 841 24.83 -9.9 14.1 49 -18.8 -1.9
01:30 1012 29.88 841 24.83 -10.3 13.5 49 -19 -2.3
01:35 1012 29.88 841 24.83 -9.6 14.8 48 -18.5 -1.3
01:40 1012 29.88 841 24.83 -9.7 14.6 51 -18.1 -0.6
01:45 1012 29.88 841 24.83 -9.6 14.8 47 -18.9 -2
01:50 1012 29.88 841 24.83 -9.1 15.5 45 -19.1 -2.4
01:55 1012 29.88 841 24.83 -9.1 15.5 44 -19.4 -3
02:00 1012 29.88 841 24.83 -8.8 16.1 45 -18.9 -1.9
02:05 1012 29.88 841 24.83 -8.6 16.5 40 -19.8 -3.7
02:10 1012 29.88 841 24.83 -7.6 18.3 38 -19.7 -3.5
02:15 1012 29.88 841 24.83 -7.3 18.8 38 -19.3 -2.7
02:20 1012 29.88 841 24.83 -7.5 18.5 38 -19.5 -3.1
02:25 1012 29.88 841 24.83 -7.9 17.7 40 -19.4 -2.9
02:30 1012 29.88 841 24.83 -8 17.6 39 -19.6 -3.3
02:35 1012 29.88 841 24.83 -7.9 17.7 39 -19.5 -3.1
02:40 1012 29.88 841 24.83 -8.2 17.3 39 -19.8 -3.6
02:45 1012 29.88 841 24.83 -8.1 17.5 38 -20.1 -4.2
02:50 1012 29.88 841 24.83 -7.6 18.3 37 -19.9 -3.8
02:55 1012 29.88 841 24.83 -7.6 18.2 38 -19.7 -3.4
03:00 1012 29.88 841 24.83 -7.3 18.9 38 -19.2 -2.5
03:05 1012 29.88 841 24.83 -7.2 19.1 38 -19.3 -2.8
03:10 1012 29.88 841 24.83 -7.2 19.1 40 -18.6 -1.5
03:15 1012 29.88 841 24.83 -7.1 19.3 39 -18.9 -2.1
03:20 1012 29.88 841 24.83 -7.5 18.5 41 -18.7 -1.6
03:25 1012 29.88 841 24.83 -8.4 17 42 -19.1 -2.3
03:30 1012 29.88 841 24.83 -8.9 16.1 44 -19 -2.2
03:35 1012 29.88 841 24.83 -8.2 17.3 41 -19.3 -2.8
03:40 1012 29.88 841 24.83 -7.8 18 39 -19.6 -3.2
03:45 1012 29.88 841 24.83 -8 17.5 40 -19.4 -2.9
03:50 1012 29.88 841 24.83 -8 17.6 38 -19.9 -3.9
03:55 1012 29.88 841 24.83 -8 17.6 38 -20 -4
04:00 1012 29.88 841 24.83 -8 17.6 38 -20.1 -4.1
04:05 1012 29.88 841 24.83 -7.6 18.3 36 -20.4 -4.8
04:10 1012 29.88 841 24.83 -6.8 19.7 36 -19.5 -3.1
04:15 1012 29.88 841 24.83 -7.9 17.9 40 -19.1 -2.4
04:20 1012 29.88 841 24.83 -8.2 17.3 38 -20.1 -4.1
04:25 1012 29.88 841 24.83 -7.8 18 43 -18.5 -1.2
04:30 1012 29.88 841 24.83 -8 17.6 45 -17.9 -0.1
04:35 1012 29.88 841 24.83 -8.8 16.2 48 -17.9 -0.1
04:40 1012 29.88 841 24.83 -9.2 15.4 47 -18.5 -1.3
04:45 1012 29.88 841 24.83 -9.2 15.5 45 -18.9 -2.1
04:50 1012 29.88 841 24.83 -9.3 15.2 46 -19 -2.2
04:55 1012 29.88 841 24.83 -9.7 14.5 48 -18.9 -2
05:00 1012 29.88 841 24.83 -10 14 47 -19.4 -2.9
05:05 1012 29.88 841 24.83 -10.2 13.7 45 -19.9 -3.9
05:10 1012 29.88 841 24.83 -9.3 15.3 42 -20 -3.9
05:15 1012 29.88 841 24.83 -8.9 15.9 44 -19.2 -2.5
05:20 1011 29.85 841 24.83 -9.2 15.4 44 -19.5 -3.1
05:25 1011 29.85 841 24.83 -8.8 16.1 43 -19.4 -2.9
05:30 1011 29.85 841 24.83 -8.6 16.6 40 -19.8 -3.7
05:35 1011 29.85 840 24.81 -8.5 16.8 40 -19.7 -3.5
05:40 1011 29.85 840 24.81 -8.9 16 42 -19.7 -3.4
05:45 1011 29.85 840 24.81 -9.3 15.3 45 -19.3 -2.7
05:50 1011 29.85 840 24.81 -9.4 15.1 44 -19.6 -3.3
05:55 1011 29.85 840 24.81 -8.9 16 43 -19.4 -2.9
06:00 1011 29.85 840 24.81 -9.2 15.5 43 -19.5 -3
06:05 1011 29.85 840 24.81 -8.6 16.6 42 -19.3 -2.8
06:10 1011 29.85 840 24.81 -8.5 16.7 43 -18.9 -2
06:15 1011 29.85 840 24.81 -8.4 16.9 43 -19 -2.1
06:20 1011 29.85 840 24.81 -8.5 16.7 46 -18.1 -0.5
06:25 1011 29.85 840 24.81 -9.5 14.9 49 -18.4 -1.1
06:30 1011 29.85 840 24.81 -10.6 13 51 -18.8 -1.9
06:35 1011 29.85 841 24.83 -11.8 10.9 54 -19.2 -2.5
06:40 1011 29.85 840 24.81 -11.6 11.2 52 -19.6 -3.2
06:45 1011 29.85 840 24.81 -10.7 12.8 49 -19.4 -2.9
06:50 1011 29.85 840 24.81 -10.3 13.4 49 -19.2 -2.5
06:55 1011 29.85 841 24.83 -10.4 13.3 47 -19.7 -3.5
07:00 1011 29.85 841 24.83 -9.3 15.3 43 -19.7 -3.4
07:05 1011 29.85 841 24.83 -8.4 16.8 41 -19.4 -2.9
07:10 1011 29.85 841 24.83 -8.5 16.7 42 -19.4 -2.9
07:15 1011 29.85 841 24.83 -8.9 16.1 43 -19.2 -2.6
07:20 1011 29.85 841 24.83 -9.5 15 45 -19.4 -2.8
07:25 1011 29.85 841 24.83 -9.7 14.6 45 -19.5 -3.1
07:30 1011 29.85 841 24.83 -9.5 14.9 45 -19.5 -3
07:35 1011 29.85 841 24.83 -9.4 15 44 -19.5 -3.1
07:40 1011 29.85 841 24.83 -9.3 15.3 43 -19.7 -3.4
07:45 1011 29.85 841 24.83 -9.5 15 45 -19.4 -3
07:50 1011 29.85 841 24.83 -9.6 14.7 44 -19.6 -3.4
07:55 1011 29.85 841 24.83 -9.5 14.9 44 -19.7 -3.5
08:00 1011 29.85 840 24.81 -9.4 15.1 43 -19.8 -3.7
08:05 1011 29.85 840 24.81 -9 15.8 41 -19.9 -3.8
08:10 1011 29.85 840 24.81 -8.9 15.9 46 -18.7 -1.6
08:15 1011 29.85 840 24.81 -9.4 15.1 44 -19.4 -2.9
08:20 1011 29.85 840 24.81 -9.4 15 44 -19.5 -3.1
08:25 1011 29.85 840 24.81 -8.7 16.3 43 -19.3 -2.7
08:30 1011 29.85 840 24.81 -8.5 16.7 42 -19.3 -2.8
08:35 1011 29.85 840 24.81 -9.1 15.5 50 -17.7 0.1
08:40 1011 29.85 840 24.81 -10.1 13.9 49 -18.9 -2.1
08:45 1011 29.85 840 24.81 -10.4 13.4 51 -18.6 -1.5
08:50 1011 29.85 840 24.81 -10.6 12.9 50 -19.1 -2.3
08:55 1011 29.85 840 24.81 -10 14 48 -19.1 -2.3
09:00 1011 29.85 840 24.81 -9.6 14.8 46 -19.3 -2.7
09:05 1011 29.85 840 24.81 -10.1 13.9 50 -18.7 -1.7
09:10 1011 29.85 840 24.81 -10.4 13.2 49 -19.2 -2.5
09:15 1011 29.85 840 24.81 -10.2 13.6 47 -19.7 -3.4
09:20 1011 29.85 840 24.81 -10 13.9 46 -19.6 -3.4
09:25 1011 29.85 840 24.81 -9.8 14.3 44 -19.8 -3.7
09:30 1011 29.85 840 24.81 -9.7 14.5 44 -20 -4
09:35 1011 29.85 840 24.81 -9.3 15.2 42 -20.1 -4.1
09:40 1011 29.85 840 24.81 -8.4 16.9 41 -19.5 -3.1
09:45 1011 29.85 840 24.81 -8.7 16.4 42 -19.5 -3.2
09:50 1011 29.85 840 24.81 -8 17.6 38 -19.9 -3.8
09:55 1011 29.85 840 24.81 -7.2 19 37 -19.4 -3
10:00 1011 29.85 840 24.81 -7.2 19.1 40 -18.8 -1.8
10:05 1011 29.85 840 24.81 -7.8 18 39 -19.5 -3
10:10 1011 29.85 840 24.81 -7.8 18 39 -19.6 -3.3
10:15 1011 29.85 840 24.81 -7.4 18.8 37 -19.7 -3.4
10:20 1011 29.85 840 24.81 -7.3 18.8 39 -18.9 -2.1
10:25 1011 29.85 840 24.81 -7.8 17.9 42 -18.7 -1.6
10:30 1011 29.85 840 24.81 -7.6 18.3 41 -18.6 -1.4
10:35 1011 29.85 840 24.81 -7.3 18.9 39 -19.1 -2.5
10:40 1011 29.85 840 24.81 -6.6 20.1 34 -20 -4
10:45 1011 29.85 840 24.81 -6.1 21.1 35 -19.2 -2.6
10:50 1011 29.85 840 24.81 -5.5 22.1 34 -19.1 -2.3
10:55 1011 29.85 840 24.81 -5.3 22.5 35 -18.6 -1.4
11:00 1011 29.85 840 24.81 -5.5 22.1 38 -17.8 0
11:05 1011 29.85 840 24.81 -5.2 22.6 38 -17.5 0.5
11:10 1011 29.85 840 24.81 -5.2 22.6 35 -18.3 -1
11:15 1011 29.85 840 24.81 -5.7 21.7 38 -17.8 -0.1
11:20 1011 29.85 840 24.81 -5.6 21.8 38 -17.9 -0.3
11:25 1011 29.85 840 24.81 -5.5 22.1 38 -17.6 0.4
11:30 1011 29.85 840 24.81 -5.5 22.2 40 -17.2 1
11:35 1011 29.85 840 24.81 -5.5 22.1 37 -18.2 -0.7
11:40 1011 29.85 840 24.81 -5.7 21.8 39 -17.6 0.4
11:45 1011 29.85 840 24.81 -5.9 21.5 39 -17.7 0.2
11:50 1011 29.85 840 24.81 -5.7 21.7 37 -18.2 -0.7
11:55 1011 29.85 840 24.81 -5.9 21.4 39 -17.9 -0.1
12:00 1010 29.83 840 24.81 -5.5 22.1 38 -17.7 0.2
12:05 1010 29.83 839 24.78 -5.2 22.6 37 -17.7 0.1
12:10 1010 29.83 839 24.78 -5.2 22.6 37 -17.9 -0.3
12:15 1010 29.83 839 24.78 -5.3 22.4 35 -18.5 -1.3
12:20 1010 29.83 839 24.78 -5.3 22.5 35 -18.4 -1.1
12:25 1010 29.83 839 24.78 -5.2 22.7 36 -17.9 -0.2
12:30 1010 29.83 839 24.78 -5.1 22.8 39 -16.9 1.5
12:35 1010 29.83 839 24.78 -5.2 22.7 40 -17 1.5
12:40 1009 29.8 839 24.78 -5.4 22.3 41 -16.7 2
12:45 1009 29.8 839 24.78 -5.4 22.2 40 -17 1.5
12:50 1009 29.8 838 24.75 -5.3 22.4 40 -16.9 1.5
12:55 1009 29.8 838 24.75 -5.1 22.8 40 -16.8 1.7
13:00 1009 29.8 838 24.75 -5.2 22.7 40 -16.7 2
13:05 1008 29.77 837 24.72 -5.2 22.7 37 -17.6 0.4
13:10 1008 29.77 838 24.75 -5 23 35 -18.2 -0.8
13:15 1009 29.8 838 24.75 -4.4 24.1 39 -16.3 2.7
13:20 1009 29.8 838 24.75 -4 24.8 41 -15.4 4.3
13:25 1009 29.8 838 24.75 -3.8 25.1 42 -14.8 5.3
13:30 1009 29.8 838 24.75 -4.1 24.6 47 -13.8 7.1
13:35 1009 29.8 838 24.75 -4.5 23.8 47 -14.4 6.2
13:40 1009 29.8 838 24.75 -4.5 23.9 42 -15.7 3.8
13:45 1009 29.8 838 24.75 -4.8 23.3 43 -15.7 3.7
13:50 1008 29.77 838 24.75 -5 23 43 -15.6 3.8
13:55 1008 29.77 837 24.72 -5 23 44 -15.4 4.3
14:00 1008 29.77 837 24.72 -5 23 49 -14.1 6.7
14:05 1007 29.74 836 24.69 -5 22.9 48 -14.5 5.8
14:10 1007 29.74 836 24.69 -4.9 23.3 43 -15.6 3.9
14:15 1007 29.74 836 24.69 -4.7 23.6 43 -15.4 4.3
14:20 1007 29.74 836 24.69 -4.3 24.3 38 -16.5 2.3
14:25 1007 29.74 836 24.69 -3.9 25 39 -16 3.2
14:30 1007 29.74 836 24.69 -3.1 26.4 39 -15.3 4.5
14:35 1008 29.77 837 24.72 -2.7 27.2 39 -14.7 5.6
14:40 1008 29.77 837 24.72 -3 26.5 40 -14.8 5.3
14:45 1008 29.77 837 24.72 -3.1 26.5 40 -14.9 5.2
14:50 1008 29.77 837 24.72 -2.9 26.8 40 -14.6 5.7
14:55 1008 29.77 837 24.72 -2.6 27.4 39 -14.9 5.2
15:00 1008 29.77 837 24.72 -2.4 27.7 39 -14.7 5.5
15:05 1008 29.77 837 24.72 -2.6 27.3 39 -14.7 5.5
15:10 1008 29.77 837 24.72 -2.6 27.3 34 -16.6 2.1
15:15 1008 29.77 837 24.72 -2.6 27.4 35 -16.2 2.9
15:20 1008 29.77 837 24.72 -2.7 27.1 34 -16.5 2.3
15:25 1008 29.77 837 24.72 -3.3 26.1 41 -14.8 5.4
15:30 1008 29.77 837 24.72 -3.9 24.9 39 -15.9 3.4
15:35 1008 29.77 838 24.75 -4.2 24.4 40 -15.9 3.4
15:40 1008 29.77 838 24.75 -4.2 24.4 40 -15.8 3.5
15:45 1009 29.8 838 24.75 -4 24.7 39 -16.1 3
15:50 1009 29.8 838 24.75 -4 24.8 39 -15.9 3.3
15:55 1009 29.8 838 24.75 -4.1 24.7 37 -16.7 1.9
16:00 1009 29.8 838 24.75 -3.9 24.9 40 -15.8 3.6
16:05 1009 29.8 838 24.75 -3.7 25.4 39 -15.8 3.5
16:10 1009 29.8 838 24.75 -3.4 25.9 35 -16.8 1.8
16:15 1009 29.8 838 24.75 -3.4 25.8 39 -15.6 4
16:20 1009 29.8 838 24.75 -3.3 26.1 34 -17 1.4
16:25 1009 29.8 838 24.75 -3.4 26 37 -15.9 3.3
16:30 1009 29.8 838 24.75 -3.3 26.1 37 -16.1 3.1
16:35 1009 29.8 838 24.75 -3.2 26.3 37 -15.9 3.3
16:40 1009 29.8 838 24.75 -3.1 26.4 35 -16.6 2
16:45 1009 29.8 838 24.75 -3.1 26.4 36 -16.1 3.1
16:50 1009 29.8 838 24.75 -3.2 26.3 36 -16.2 2.8
16:55 1009 29.8 838 24.75 -3.4 25.9 38 -15.8 3.5
17:00 1009 29.8 838 24.75 -3.5 25.8 40 -15.3 4.4
17:05 1009 29.8 838 24.75 -3.6 25.6 40 -15.5 4.2
17:10 1009 29.8 838 24.75 -3.6 25.5 46 -13.7 7.3
17:15 1009 29.8 838 24.75 -3.8 25.2 47 -13.6 7.5
17:20 1008 29.77 838 24.75 -3.9 24.9 45 -14.3 6.3
17:25 1008 29.77 838 24.75 -3.9 24.9 41 -15.4 4.2
17:30 1008 29.77 837 24.72 -3.8 25.1 40 -15.5 4.2
17:35 1008 29.77 837 24.72 -3.7 25.4 39 -15.7 3.8
17:40 1008 29.77 837 24.72 -3.5 25.8 39 -15.6 4
17:45 1008 29.77 837 24.72 -3.3 26.1 40 -15.1 4.9
17:50 1008 29.77 837 24.72 -3.2 26.2 40 -15 5.1
17:55 1008 29.77 837 24.72 -3 26.6 40 -14.8 5.3
18:00 1008 29.77 837 24.72 -2.5 27.5 40 -14.5 6
18:05 1008 29.77 837 24.72 -2.2 28.1 40 -13.9 6.9
18:10 1008 29.77 837 24.72 -1.8 28.9 39 -14 6.8
18:15 1008 29.77 837 24.72 -1.9 28.6 40 -13.8 7.1
18:20 1008 29.77 837 24.72 -1.9 28.6 42 -13.1 8.4
18:25 1008 29.77 837 24.72 -1.5 29.3 42 -12.7 9.1
18:30 1008 29.77 838 24.75 -1.8 28.7 43 -12.7 9.1
18:35 1008 29.77 837 24.72 -2 28.4 46 -12.3 9.9
18:40 1008 29.77 837 24.72 -2.5 27.4 48 -12.2 10
18:45 1008 29.77 838 24.75 -3.1 26.4 51 -11.9 10.6
18:50 1008 29.77 837 24.72 -3.6 25.5 53 -11.8 10.8
18:55 1008 29.77 837 24.72 -4 24.9 56 -11.4 11.4
19:00 1008 29.77 837 24.72 -4 24.8 55 -11.8 10.8
19:05 1008 29.77 837 24.72 -4 24.9 56 -11.5 11.3
19:10 1008 29.77 837 24.72 -4.1 24.6 56 -11.6 11.1
19:15 1008 29.77 837 24.72 -4.2 24.4 54 -12.1 10.2
19:20 1008 29.77 837 24.72 -4.3 24.3 54 -12.4 9.7
19:25 1008 29.77 837 24.72 -4.3 24.3 56 -11.9 10.6
19:30 1008 29.77 837 24.72 -4.2 24.4 54 -12.3 9.9
19:35 1008 29.77 837 24.72 -3.6 25.6 51 -12.4 9.6
19:40 1008 29.77 837 24.72 -3.7 25.4 54 -11.6 11.1
19:45 1008 29.77 837 24.72 -3.7 25.3 55 -11.6 11.2
19:50 1008 29.77 837 24.72 -3.1 26.4 52 -11.6 11
19:55 1008 29.77 837 24.72 -2.3 27.8 50 -11.5 11.3
20:00 1008 29.77 837 24.72 -2.4 27.6 52 -11 12.2
20:05 1008 29.77 837 24.72 -2.5 27.5 55 -10.4 13.2
20:10 1008 29.77 837 24.72 -2.8 26.9 55 -10.6 12.8
20:15 1008 29.77 837 24.72 -2.8 27 55 -10.7 12.8
20:20 1008 29.77 837 24.72 -2.7 27.1 56 -10.3 13.5
20:25 1008 29.77 837 24.72 -2.8 26.9 54 -10.8 12.5
20:30 1008 29.77 837 24.72 -2.8 26.9 58 -9.9 14.1
20:35 1008 29.77 837 24.72 -3 26.6 53 -11.4 11.5
20:40 1008 29.77 837 24.72 -2.8 26.9 52 -11.2 11.8
20:45 1008 29.77 837 24.72 -2.8 27 50 -11.7 10.9
20:50 1008 29.77 837 24.72 -3.1 26.5 55 -11 12.2
20:55 1008 29.77 837 24.72 -3.5 25.7 56 -11 12.1
21:00 1008 29.77 837 24.72 -3.8 25.1 55 -11.6 11.1
21:05 1008 29.77 837 24.72 -3.9 24.9 55 -11.6 11.1
21:10 1008 29.77 837 24.72 -3.9 24.9 52 -12.3 9.8
21:15 1008 29.77 837 24.72 -3.9 25 54 -11.8 10.7
21:20 1008 29.77 837 24.72 -3.9 25 57 -11.3 11.6
21:25 1008 29.77 837 24.72 -4 24.8 49 -13.1 8.3
21:30 1008 29.77 837 24.72 -3.8 25.1 53 -12.1 10.3
21:35 1008 29.77 837 24.72 -3.6 25.4 47 -13.5 7.7
21:40 1008 29.77 837 24.72 -3.4 25.9 41 -15 5.1
21:45 1008 29.77 837 24.72 -3.1 26.4 43 -13.9 6.9
21:50 1008 29.77 837 24.72 -3 26.5 44 -13.6 7.4
21:55 1008 29.77 837 24.72 -2.7 27.1 44 -13.3 8
22:00 1008 29.77 837 24.72 -2.8 27 47 -12.7 9.1
22:05 1008 29.77 837 24.72 -2.8 27 49 -12.1 10.2
22:10 1008 29.77 837 24.72 -2.6 27.3 52 -11.3 11.7
22:15 1008 29.77 837 24.72 -2.7 27.2 51 -11.6 11.2
22:20 1008 29.77 837 24.72 -2.6 27.4 53 -10.9 12.5
22:25 1008 29.77 837 24.72 -2.4 27.6 59 -9.5 14.9
22:30 1008 29.77 837 24.72 -2.3 27.8 59 -9.3 15.2
22:35 1008 29.77 837 24.72 -2.4 27.7 58 -9.6 14.6
22:40 1008 29.77 837 24.72 -2.6 27.3 59 -9.5 14.8
22:45 1008 29.77 837 24.72 -2.7 27.1 58 -9.8 14.3
22:50 1008 29.77 837 24.72 -2.9 26.9 63 -9 15.7
22:55 1008 29.77 837 24.72 -2.8 27 61 -9.3 15.2
23:00 1008 29.77 837 24.72 -2.6 27.4 61 -9.1 15.6
23:05 1008 29.77 837 24.72 -2.3 27.9 60 -9.1 15.6
23:10 1008 29.77 837 24.72 -2.2 28.1 62 -8.6 16.6
23:15 1008 29.77 837 24.72 -2.1 28.2 59 -9 15.8
23:20 1008 29.77 837 24.72 -2.2 28 60 -8.9 15.9
23:25 1008 29.77 837 24.72 -2.4 27.6 61 -9 15.8
23:30 1008 29.77 837 24.72 -3 26.6 65 -8.7 16.3
23:35 1008 29.77 837 24.72 -3.2 26.2 66 -8.7 16.3
23:40 1008 29.77 837 24.72 -3.3 26.1 67 -8.5 16.7
23:45 1008 29.77 837 24.72 -3 26.6 65 -8.6 16.4
23:50 1008 29.77 837 24.72 -2.7 27.1 65 -8.4 16.9
23:55 1008 29.77 837 24.72 -2.5 27.5 65 -8.2 17.2
24:00 1008 29.77 837 24.72 -2.3 27.9 65 -8.1 17.5